createdAt,value
2018-05-07T00:00:51.176Z,52.33
2018-05-07T00:01:57.897Z,52.49
2018-05-07T00:03:04.651Z,52.51
2018-05-07T00:04:11.427Z,52.59
2018-05-07T00:05:18.098Z,52.64
2018-05-07T00:06:24.861Z,52.75
2018-05-07T00:07:31.670Z,52.73
2018-05-07T00:08:38.378Z,52.78
2018-05-07T00:09:45.186Z,52.82
2018-05-07T00:10:51.947Z,52.87
2018-05-07T00:11:58.700Z,52.80
2018-05-07T00:13:05.512Z,52.88
2018-05-07T00:14:12.555Z,52.88
2018-05-07T00:15:19.123Z,52.83
2018-05-07T00:16:25.926Z,52.93
2018-05-07T00:17:32.714Z,52.95
2018-05-07T00:18:39.466Z,52.98
2018-05-07T00:19:46.209Z,52.98
2018-05-07T00:20:52.952Z,52.97
2018-05-07T00:21:59.780Z,53.01
2018-05-07T00:23:06.522Z,53.06
2018-05-07T00:24:13.304Z,52.97
2018-05-07T00:25:20.031Z,53.05
2018-05-07T00:26:26.835Z,53.03
2018-05-07T00:27:33.581Z,52.99
2018-05-07T00:28:40.384Z,53.04
2018-05-07T00:29:47.079Z,53.07
2018-05-07T00:30:53.827Z,53.20
2018-05-07T00:32:00.566Z,53.24
2018-05-07T00:33:07.389Z,53.37
2018-05-07T00:34:14.103Z,53.39
2018-05-07T00:35:21.031Z,53.39
2018-05-07T00:36:27.843Z,53.33
2018-05-07T00:37:34.695Z,53.37
2018-05-07T00:38:41.492Z,53.39
2018-05-07T00:39:48.335Z,53.44
2018-05-07T00:40:55.060Z,53.53
2018-05-07T00:42:01.791Z,53.56
2018-05-07T00:43:08.580Z,53.54
2018-05-07T00:44:15.291Z,53.57
2018-05-07T00:45:22.048Z,53.67
2018-05-07T00:46:28.778Z,53.62
2018-05-07T00:47:35.529Z,53.73
2018-05-07T00:48:42.283Z,53.83
2018-05-07T00:49:49.010Z,53.80
2018-05-07T00:50:55.982Z,53.77
2018-05-07T00:52:02.700Z,53.86
2018-05-07T00:53:09.440Z,53.95
2018-05-07T00:54:16.412Z,53.97
2018-05-07T00:55:23.177Z,54.04
2018-05-07T00:56:29.914Z,54.02
2018-05-07T00:57:36.638Z,54.15
2018-05-07T00:58:43.390Z,54.28
2018-05-07T00:59:50.202Z,54.25
2018-05-07T01:00:57.001Z,54.42
2018-05-07T01:02:03.743Z,54.42
2018-05-07T01:03:10.519Z,54.62
2018-05-07T01:04:17.299Z,54.67
2018-05-07T01:05:24.005Z,54.67
2018-05-07T01:06:30.787Z,54.70
2018-05-07T01:07:37.554Z,54.68
2018-05-07T01:08:44.420Z,54.73
2018-05-07T01:09:51.196Z,54.74
2018-05-07T01:10:58.010Z,54.77
2018-05-07T01:12:04.845Z,54.87
2018-05-07T01:13:11.628Z,54.81
2018-05-07T01:14:18.416Z,54.90
2018-05-07T01:15:25.260Z,54.85
2018-05-07T01:16:32.013Z,54.86
2018-05-07T01:17:38.827Z,55.04
2018-05-07T01:18:45.722Z,55.06
2018-05-07T01:19:52.495Z,55.04
2018-05-07T01:20:59.272Z,55.10
2018-05-07T01:22:06.151Z,55.15
2018-05-07T01:23:12.938Z,55.13
2018-05-07T01:24:19.707Z,55.11
2018-05-07T01:25:26.594Z,55.10
2018-05-07T01:26:33.306Z,55.13
2018-05-07T01:27:40.114Z,55.23
2018-05-07T01:28:46.942Z,55.31
2018-05-07T01:29:53.692Z,55.22
2018-05-07T01:31:00.647Z,55.29
2018-05-07T01:32:07.502Z,55.28
2018-05-07T01:33:14.302Z,55.31
2018-05-07T01:34:21.092Z,55.42
2018-05-07T01:35:27.935Z,55.36
2018-05-07T01:36:34.706Z,55.43
2018-05-07T01:37:41.510Z,55.53
2018-05-07T01:38:48.394Z,55.61
2018-05-07T01:39:55.199Z,55.60
2018-05-07T01:41:01.986Z,55.60
2018-05-07T01:42:08.834Z,55.72
2018-05-07T01:43:15.638Z,55.84
2018-05-07T01:44:22.407Z,55.83
2018-05-07T01:45:29.434Z,55.84
2018-05-07T01:46:36.240Z,55.91
2018-05-07T01:47:43.266Z,55.86
2018-05-07T01:48:50.035Z,55.93
2018-05-07T01:49:56.863Z,56.07
2018-05-07T01:51:03.642Z,56.09
2018-05-07T01:52:10.396Z,56.08
2018-05-07T01:53:17.157Z,56.05
2018-05-07T01:54:23.930Z,56.04
2018-05-07T01:55:30.707Z,56.10
2018-05-07T01:56:37.507Z,56.10
2018-05-07T01:57:44.360Z,56.24
2018-05-07T01:58:51.133Z,56.21
2018-05-07T01:59:57.975Z,56.25
2018-05-07T02:01:04.806Z,56.23
2018-05-07T02:02:11.577Z,56.32
2018-05-07T02:03:18.406Z,56.43
2018-05-07T02:04:25.263Z,56.51
2018-05-07T02:05:32.028Z,56.50
2018-05-07T02:06:38.839Z,56.51
2018-05-07T02:07:45.604Z,56.51
2018-05-07T02:08:52.385Z,56.50
2018-05-07T02:09:59.168Z,56.60
2018-05-07T02:11:05.947Z,56.66
2018-05-07T02:12:12.843Z,56.69
2018-05-07T02:13:19.644Z,56.67
2018-05-07T02:14:26.600Z,56.74
2018-05-07T02:15:33.343Z,56.74
2018-05-07T02:16:40.168Z,56.68
2018-05-07T02:17:46.932Z,56.75
2018-05-07T02:18:53.758Z,56.76
2018-05-07T02:20:00.990Z,56.80
2018-05-07T02:21:08.159Z,56.79
2018-05-07T02:22:14.962Z,56.80
2018-05-07T02:23:21.711Z,56.83
2018-05-07T02:24:28.499Z,56.86
2018-05-07T02:25:35.301Z,56.76
2018-05-07T02:26:42.044Z,56.76
2018-05-07T02:27:48.906Z,56.78
2018-05-07T02:28:55.703Z,56.85
2018-05-07T02:30:02.498Z,56.83
2018-05-07T02:31:09.335Z,56.79
2018-05-07T02:32:16.108Z,56.87
2018-05-07T02:33:22.911Z,56.95
2018-05-07T02:34:29.783Z,56.94
2018-05-07T02:35:36.651Z,56.90
2018-05-07T02:36:43.492Z,56.94
2018-05-07T02:37:50.229Z,57.01
2018-05-07T02:38:57.127Z,56.96
2018-05-07T02:40:03.839Z,56.90
2018-05-07T02:41:10.716Z,56.83
2018-05-07T02:42:17.479Z,56.81
2018-05-07T02:43:24.258Z,56.86
2018-05-07T02:44:31.079Z,56.84
2018-05-07T02:45:37.827Z,56.81
2018-05-07T02:46:44.576Z,56.77
2018-05-07T02:47:51.338Z,56.89
2018-05-07T02:48:58.138Z,56.97
2018-05-07T02:50:05.308Z,56.93
2018-05-07T02:51:12.067Z,56.94
2018-05-07T02:52:18.803Z,57.03
2018-05-07T02:53:25.590Z,57.08
2018-05-07T02:54:32.363Z,57.10
2018-05-07T02:55:39.168Z,57.21
2018-05-07T02:56:45.910Z,57.22
2018-05-07T02:57:52.707Z,57.24
2018-05-07T02:58:59.495Z,57.25
2018-05-07T03:00:06.301Z,57.26
2018-05-07T03:01:13.071Z,57.16
2018-05-07T03:02:19.865Z,57.13
2018-05-07T03:03:26.821Z,57.19
2018-05-07T03:04:33.633Z,57.23
2018-05-07T03:05:40.528Z,57.32
2018-05-07T03:06:47.303Z,57.34
2018-05-07T03:07:54.148Z,57.40
2018-05-07T03:09:01.026Z,57.48
2018-05-07T03:10:07.732Z,57.51
2018-05-07T03:11:14.539Z,57.49
2018-05-07T03:12:21.282Z,57.53
2018-05-07T03:13:28.145Z,57.64
2018-05-07T03:14:34.938Z,57.71
2018-05-07T03:15:41.742Z,57.71
2018-05-07T03:16:48.602Z,57.68
2018-05-07T03:17:55.372Z,57.69
2018-05-07T03:19:02.139Z,57.74
2018-05-07T03:20:08.923Z,57.74
2018-05-07T03:21:15.732Z,57.70
2018-05-07T03:22:22.667Z,57.65
2018-05-07T03:23:29.547Z,57.68
2018-05-07T03:24:36.323Z,57.72
2018-05-07T03:25:43.062Z,57.72
2018-05-07T03:26:49.825Z,57.78
2018-05-07T03:27:56.646Z,57.79
2018-05-07T03:29:08.467Z,57.84
2018-05-07T03:30:15.363Z,57.82
2018-05-07T03:31:22.185Z,57.86
2018-05-07T03:32:24.103Z,57.86
2018-05-07T03:33:30.967Z,57.97
2018-05-07T03:34:37.812Z,57.99
2018-05-07T03:35:44.615Z,57.96
2018-05-07T03:36:51.436Z,57.90
2018-05-07T03:37:58.221Z,57.96
2018-05-07T03:39:05.015Z,57.96
2018-05-07T03:40:12.022Z,57.98
2018-05-07T03:41:18.911Z,57.99
2018-05-07T03:42:25.733Z,58.00
2018-05-07T03:43:32.635Z,58.04
2018-05-07T03:44:39.540Z,58.12
2018-05-07T03:45:46.459Z,58.09
2018-05-07T03:46:53.346Z,58.07
2018-05-07T03:48:00.510Z,58.12
2018-05-07T03:49:07.191Z,58.17
2018-05-07T03:50:13.959Z,58.26
2018-05-07T03:51:20.993Z,58.22
2018-05-07T03:52:27.783Z,58.19
2018-05-07T03:53:34.572Z,58.24
2018-05-07T03:54:41.306Z,58.33
2018-05-07T03:55:48.178Z,58.32
2018-05-07T03:56:54.946Z,58.31
2018-05-07T03:58:01.720Z,58.35
2018-05-07T03:59:08.623Z,58.32
2018-05-07T04:00:15.383Z,58.34
2018-05-07T04:01:22.140Z,58.35
2018-05-07T04:02:28.911Z,58.46
2018-05-07T04:03:35.735Z,58.43
2018-05-07T04:04:42.748Z,58.47
2018-05-07T04:05:49.583Z,58.49
2018-05-07T04:06:56.411Z,58.59
2018-05-07T04:08:03.327Z,58.62
2018-05-07T04:09:10.238Z,58.63
2018-05-07T04:10:17.118Z,58.62
2018-05-07T04:11:23.959Z,58.67
2018-05-07T04:12:30.702Z,58.76
2018-05-07T04:13:37.613Z,58.79
2018-05-07T04:14:44.423Z,58.74
2018-05-07T04:15:51.238Z,58.81
2018-05-07T04:16:58.058Z,58.86
2018-05-07T04:19:10.316Z,58.86
2018-05-07T04:20:17.255Z,58.96
2018-05-07T04:21:24.371Z,58.96
2018-05-07T04:22:31.375Z,59.02
2018-05-07T04:23:38.547Z,58.97
2018-05-07T04:24:45.540Z,59.07
2018-05-07T04:25:52.358Z,59.08
2018-05-07T04:26:59.134Z,59.08
2018-05-07T04:28:05.891Z,59.12
2018-05-07T04:29:12.690Z,59.18
2018-05-07T04:30:19.527Z,59.12
2018-05-07T04:31:26.283Z,59.19
2018-05-07T04:32:33.065Z,59.21
2018-05-07T04:33:39.917Z,59.33
2018-05-07T04:34:46.736Z,59.33
2018-05-07T04:35:53.491Z,59.35
2018-05-07T04:37:00.243Z,59.40
2018-05-07T04:38:07.104Z,59.40
2018-05-07T04:39:13.894Z,59.43
2018-05-07T04:40:20.688Z,59.55
2018-05-07T04:41:27.686Z,59.58
2018-05-07T04:42:34.469Z,59.69
2018-05-07T04:43:41.333Z,59.70
2018-05-07T04:44:48.158Z,59.78
2018-05-07T04:45:55.008Z,59.81
2018-05-07T04:47:01.777Z,59.90
2018-05-07T04:48:08.563Z,59.86
2018-05-07T04:49:15.347Z,59.94
2018-05-07T04:50:22.135Z,59.91
2018-05-07T04:51:28.926Z,59.90
2018-05-07T04:52:35.715Z,59.93
2018-05-07T04:53:42.475Z,59.92
2018-05-07T04:54:49.306Z,60.04
2018-05-07T04:55:56.075Z,60.08
2018-05-07T04:57:02.871Z,60.23
2018-05-07T04:58:09.666Z,60.21
2018-05-07T04:59:16.511Z,60.17
2018-05-07T05:00:23.345Z,60.34
2018-05-07T05:01:30.679Z,60.43
2018-05-07T05:02:37.146Z,60.57
2018-05-07T05:03:43.905Z,60.58
2018-05-07T05:04:51.050Z,60.54
2018-05-07T05:05:57.838Z,60.75
2018-05-07T05:07:04.546Z,60.82
2018-05-07T05:08:11.650Z,60.93
2018-05-07T05:09:18.374Z,60.95
2018-05-07T05:10:25.225Z,61.10
2018-05-07T05:11:32.006Z,61.16
2018-05-07T05:12:38.735Z,61.19
2018-05-07T05:13:45.470Z,61.31
2018-05-07T05:14:52.322Z,61.36
2018-05-07T05:15:59.041Z,61.44
2018-05-07T05:17:05.790Z,61.59
2018-05-07T05:18:12.523Z,61.66
2018-05-07T05:19:19.351Z,61.67
2018-05-07T05:20:26.114Z,61.77
2018-05-07T05:21:33.021Z,61.85
2018-05-07T05:22:39.703Z,61.97
2018-05-07T05:23:46.583Z,62.08
2018-05-07T05:24:53.287Z,62.22
2018-05-07T05:26:00.027Z,62.32
2018-05-07T05:27:06.806Z,62.45
2018-05-07T05:28:13.559Z,62.59
2018-05-07T05:29:20.391Z,62.75
2018-05-07T05:30:27.135Z,62.84
2018-05-07T05:31:33.934Z,63.03
2018-05-07T05:32:40.750Z,63.17
2018-05-07T05:33:47.526Z,63.36
2018-05-07T05:34:54.286Z,63.44
2018-05-07T05:36:01.082Z,63.65
2018-05-07T05:37:07.826Z,63.74
2018-05-07T05:38:14.523Z,63.87
2018-05-07T05:39:21.307Z,64.16
2018-05-07T05:40:28.085Z,64.20
2018-05-07T05:41:35.078Z,63.98
2018-05-07T05:42:41.826Z,64.02
2018-05-07T05:43:48.574Z,64.26
2018-05-07T05:44:55.598Z,64.31
2018-05-07T05:46:02.326Z,64.18
2018-05-07T05:47:09.070Z,64.17
2018-05-07T05:48:16.106Z,64.30
2018-05-07T05:49:22.913Z,64.23
2018-05-07T05:50:29.622Z,64.21
2018-05-07T05:51:36.347Z,64.17
2018-05-07T05:52:43.171Z,64.12
2018-05-07T05:53:49.891Z,64.33
2018-05-07T05:54:56.623Z,64.43
2018-05-07T05:56:03.344Z,64.51
2018-05-07T05:57:10.091Z,64.53
2018-05-07T05:58:16.783Z,64.40
2018-05-07T05:59:23.631Z,64.46
2018-05-07T06:00:30.338Z,64.48
2018-05-07T06:01:37.078Z,64.61
2018-05-07T06:02:43.807Z,64.46
2018-05-07T06:03:50.719Z,64.44
2018-05-07T06:04:57.391Z,64.55
2018-05-07T06:06:04.203Z,64.63
2018-05-07T06:07:10.971Z,64.59
2018-05-07T06:08:17.750Z,64.52
2018-05-07T06:09:24.559Z,64.39
2018-05-07T06:10:31.299Z,64.36
2018-05-07T06:11:38.117Z,64.43
2018-05-07T06:12:45.010Z,64.37
2018-05-07T06:13:51.838Z,64.31
2018-05-07T06:14:58.798Z,64.27
2018-05-07T06:16:05.494Z,64.31
2018-05-07T06:17:12.253Z,64.45
2018-05-07T06:18:19.035Z,64.33
2018-05-07T06:19:25.983Z,64.29
2018-05-07T06:20:32.748Z,64.15
2018-05-07T06:21:39.515Z,64.17
2018-05-07T06:22:46.269Z,64.19
2018-05-07T06:23:53.085Z,64.17
2018-05-07T06:24:59.884Z,64.14
2018-05-07T06:26:06.714Z,64.10
2018-05-07T06:27:13.632Z,64.13
2018-05-07T06:28:20.490Z,64.03
2018-05-07T06:29:27.276Z,64.03
2018-05-07T06:30:34.158Z,64.03
2018-05-07T06:31:40.974Z,63.98
2018-05-07T06:32:47.734Z,63.84
2018-05-07T06:33:54.538Z,63.85
2018-05-07T06:35:01.405Z,63.87
2018-05-07T06:36:08.355Z,63.86
2018-05-07T06:37:15.143Z,63.77
2018-05-07T06:38:21.948Z,63.71
2018-05-07T06:39:28.835Z,63.79
2018-05-07T06:40:35.591Z,63.94
2018-05-07T06:41:42.335Z,63.84
2018-05-07T06:42:49.134Z,63.79
2018-05-07T06:43:55.973Z,63.78
2018-05-07T06:45:02.753Z,63.76
2018-05-07T06:46:09.514Z,63.75
2018-05-07T06:47:16.299Z,63.90
2018-05-07T06:48:23.226Z,64.06
2018-05-07T06:49:30.337Z,63.93
2018-05-07T06:50:37.110Z,63.85
2018-05-07T06:51:43.886Z,63.89
2018-05-07T06:52:50.680Z,63.74
2018-05-07T06:53:57.456Z,63.75
2018-05-07T06:55:04.249Z,63.56
2018-05-07T06:56:11.023Z,63.57
2018-05-07T06:57:17.799Z,63.71
2018-05-07T06:58:24.546Z,63.82
2018-05-07T06:59:31.385Z,63.86
2018-05-07T07:00:38.270Z,63.63
2018-05-07T07:01:45.130Z,63.55
2018-05-07T07:02:52.014Z,63.59
2018-05-07T07:03:58.750Z,63.61
2018-05-07T07:05:05.487Z,63.67
2018-05-07T07:06:12.214Z,63.50
2018-05-07T07:07:19.240Z,63.43
2018-05-07T07:08:26.047Z,63.47
2018-05-07T07:09:32.672Z,63.40
2018-05-07T07:10:39.399Z,63.21
2018-05-07T07:11:46.090Z,63.09
2018-05-07T07:12:52.827Z,63.09
2018-05-07T07:13:59.699Z,63.02
2018-05-07T07:15:06.442Z,62.96
2018-05-07T07:16:13.187Z,63.01
2018-05-07T07:17:19.879Z,63.10
2018-05-07T07:18:26.642Z,62.93
2018-05-07T07:19:33.502Z,62.89
2018-05-07T07:20:40.346Z,62.97
2018-05-07T07:21:47.135Z,62.88
2018-05-07T07:22:53.787Z,62.79
2018-05-07T07:24:00.614Z,62.61
2018-05-07T07:25:07.317Z,62.60
2018-05-07T07:26:14.054Z,62.38
2018-05-07T07:27:20.822Z,62.32
2018-05-07T07:28:27.538Z,62.53
2018-05-07T07:29:34.274Z,62.59
2018-05-07T07:30:41.138Z,62.35
2018-05-07T07:31:47.933Z,62.13
2018-05-07T07:32:54.874Z,62.10
2018-05-07T07:34:01.722Z,61.99
2018-05-07T07:35:08.647Z,61.84
2018-05-07T07:36:15.492Z,61.86
2018-05-07T07:37:22.291Z,61.69
2018-05-07T07:38:28.986Z,61.57
2018-05-07T07:39:35.823Z,61.73
2018-05-07T07:40:42.550Z,61.79
2018-05-07T07:41:52.634Z,61.98
2018-05-07T07:42:56.072Z,62.02
2018-05-07T07:44:02.793Z,61.92
2018-05-07T07:45:09.626Z,61.92
2018-05-07T07:46:16.370Z,61.62
2018-05-07T07:47:23.095Z,61.70
2018-05-07T07:48:29.830Z,61.71
2018-05-07T07:49:36.598Z,61.53
2018-05-07T07:50:43.393Z,61.33
2018-05-07T07:51:50.227Z,61.29
2018-05-07T07:52:56.964Z,61.36
2018-05-07T07:54:03.794Z,61.62
2018-05-07T07:55:10.670Z,61.30
2018-05-07T07:56:17.378Z,61.26
2018-05-07T07:57:24.132Z,61.28
2018-05-07T07:58:30.954Z,61.40
2018-05-07T07:59:37.686Z,61.46
2018-05-07T08:00:44.479Z,61.27
2018-05-07T08:01:51.207Z,61.40
2018-05-07T08:02:58.154Z,61.36
2018-05-07T08:04:05.018Z,61.64
2018-05-07T08:05:11.908Z,61.67
2018-05-07T08:06:18.674Z,61.34
2018-05-07T08:07:25.474Z,61.25
2018-05-07T08:08:32.211Z,61.47
2018-05-07T08:09:39.014Z,61.34
2018-05-07T08:10:47.174Z,61.32
2018-05-07T08:11:52.552Z,61.09
2018-05-07T08:12:59.482Z,60.99
2018-05-07T08:14:06.306Z,61.34
2018-05-07T08:15:13.091Z,61.23
2018-05-07T08:16:19.938Z,61.46
2018-05-07T08:17:26.889Z,61.13
2018-05-07T08:18:33.788Z,61.10
2018-05-07T08:19:40.512Z,60.99
2018-05-07T08:20:47.262Z,61.00
2018-05-07T08:21:54.019Z,60.87
2018-05-07T08:23:00.846Z,60.82
2018-05-07T08:24:07.643Z,61.15
2018-05-07T08:25:14.403Z,61.17
2018-05-07T08:26:21.310Z,61.26
2018-05-07T08:27:28.138Z,61.20
2018-05-07T08:28:34.972Z,61.35
2018-05-07T08:29:41.788Z,61.13
2018-05-07T08:30:48.622Z,61.04
2018-05-07T08:31:55.410Z,60.84
2018-05-07T08:33:02.330Z,60.54
2018-05-07T08:34:09.098Z,60.14
2018-05-07T08:35:16.107Z,60.14
2018-05-07T08:36:22.916Z,59.98
2018-05-07T08:37:30.007Z,59.73
2018-05-07T08:38:36.843Z,59.75
2018-05-07T08:39:43.715Z,59.45
2018-05-07T08:40:51.018Z,59.23
2018-05-07T08:41:57.375Z,59.24
2018-05-07T08:43:04.159Z,59.07
2018-05-07T08:44:10.898Z,58.82
2018-05-07T08:45:17.698Z,58.97
2018-05-07T08:46:24.451Z,59.15
2018-05-07T08:47:31.251Z,58.93
2018-05-07T08:48:38.054Z,58.74
2018-05-07T08:49:44.834Z,58.62
2018-05-07T08:50:51.747Z,58.29
2018-05-07T08:51:58.446Z,58.24
2018-05-07T08:53:05.264Z,58.27
2018-05-07T08:54:11.990Z,58.27
2018-05-07T08:55:18.802Z,58.38
2018-05-07T08:56:25.631Z,58.08
2018-05-07T08:57:32.383Z,58.06
2018-05-07T08:58:40.015Z,58.07
2018-05-07T08:59:45.897Z,57.74
2018-05-07T09:00:52.650Z,57.57
2018-05-07T09:01:59.406Z,57.21
2018-05-07T09:03:06.170Z,56.86
2018-05-07T09:04:13.004Z,56.97
2018-05-07T09:05:19.775Z,56.81
2018-05-07T09:06:26.555Z,56.62
2018-05-07T09:07:33.332Z,56.38
2018-05-07T09:08:39.965Z,56.17
2018-05-07T09:09:47.788Z,56.14
2018-05-07T09:10:53.589Z,56.09
2018-05-07T09:12:00.328Z,55.79
2018-05-07T09:13:07.092Z,55.71
2018-05-07T09:14:13.881Z,55.62
2018-05-07T09:15:20.640Z,55.61
2018-05-07T09:16:27.392Z,55.41
2018-05-07T09:17:34.347Z,55.25
2018-05-07T09:18:41.136Z,55.30
2018-05-07T09:19:47.934Z,55.21
2018-05-07T09:20:54.687Z,55.37
2018-05-07T09:22:01.466Z,55.32
2018-05-07T09:23:08.157Z,55.31
2018-05-07T09:24:14.870Z,55.17
2018-05-07T09:25:21.594Z,54.70
2018-05-07T09:26:28.316Z,54.83
2018-05-07T09:27:35.014Z,54.68
2018-05-07T09:28:41.713Z,54.41
2018-05-07T09:29:48.534Z,54.24
2018-05-07T09:30:55.258Z,54.47
2018-05-07T09:32:03.077Z,54.73
2018-05-07T09:33:08.833Z,54.60
2018-05-07T09:34:15.666Z,54.32
2018-05-07T09:35:22.449Z,54.07
2018-05-07T09:36:29.198Z,53.93
2018-05-07T09:37:35.901Z,53.88
2018-05-07T09:38:42.607Z,54.17
2018-05-07T09:39:49.421Z,54.37
2018-05-07T09:40:56.139Z,53.86
2018-05-07T09:42:02.877Z,53.63
2018-05-07T09:43:09.672Z,53.62
2018-05-07T09:44:16.374Z,53.28
2018-05-07T09:45:23.294Z,53.22
2018-05-07T09:46:30.187Z,52.98
2018-05-07T09:47:37.006Z,52.67
2018-05-07T09:48:43.794Z,52.34
2018-05-07T09:49:50.674Z,52.18
2018-05-07T09:50:57.490Z,52.11
2018-05-07T09:52:04.186Z,52.00
2018-05-07T09:53:10.896Z,52.06
2018-05-07T09:54:17.595Z,52.49
2018-05-07T09:55:24.353Z,52.53
2018-05-07T09:56:31.049Z,52.25
2018-05-07T09:57:37.911Z,51.91
2018-05-07T09:58:44.758Z,51.79
2018-05-07T09:59:51.753Z,51.74
2018-05-07T10:00:58.526Z,51.93
2018-05-07T10:02:05.241Z,51.86
2018-05-07T10:03:11.935Z,52.25
2018-05-07T10:04:18.625Z,51.93
2018-05-07T10:05:25.363Z,51.93
2018-05-07T10:06:32.201Z,51.68
2018-05-07T10:07:39.291Z,51.70
2018-05-07T10:08:46.093Z,51.48
2018-05-07T10:09:53.102Z,51.18
2018-05-07T10:10:59.853Z,51.51
2018-05-07T10:12:06.595Z,51.62
2018-05-07T10:13:13.313Z,51.64
2018-05-07T10:14:20.026Z,51.73
2018-05-07T10:15:26.845Z,51.39
2018-05-07T10:16:33.587Z,51.62
2018-05-07T10:17:40.369Z,51.26
2018-05-07T10:18:47.374Z,51.18
2018-05-07T10:19:54.132Z,51.20
2018-05-07T10:21:00.896Z,51.49
2018-05-07T10:22:07.975Z,51.62
2018-05-07T10:23:14.679Z,51.36
2018-05-07T10:24:21.481Z,51.07
2018-05-07T10:25:28.222Z,50.85
2018-05-07T10:26:35.050Z,51.09
2018-05-07T10:27:41.799Z,50.96
2018-05-07T10:28:48.550Z,50.74
2018-05-07T10:29:55.395Z,50.90
2018-05-07T10:31:02.094Z,50.60
2018-05-07T10:32:08.885Z,50.52
2018-05-07T10:33:15.649Z,50.55
2018-05-07T10:34:22.426Z,50.36
2018-05-07T10:35:29.390Z,50.26
2018-05-07T10:36:36.126Z,50.24
2018-05-07T10:37:42.958Z,50.05
2018-05-07T10:38:49.979Z,50.00
2018-05-07T10:39:56.692Z,49.94
2018-05-07T10:41:03.437Z,49.88
2018-05-07T10:42:10.180Z,50.08
2018-05-07T10:43:16.974Z,49.79
2018-05-07T10:44:23.783Z,49.87
2018-05-07T10:45:30.535Z,49.60
2018-05-07T10:46:37.239Z,49.67
2018-05-07T10:47:44.029Z,49.53
2018-05-07T10:48:50.738Z,49.15
2018-05-07T10:49:57.427Z,49.46
2018-05-07T10:51:04.174Z,49.50
2018-05-07T10:52:11.326Z,49.66
2018-05-07T10:53:18.105Z,49.53
2018-05-07T10:54:24.894Z,49.71
2018-05-07T10:55:31.662Z,49.53
2018-05-07T10:56:38.398Z,49.28
2018-05-07T10:57:45.098Z,49.27
2018-05-07T10:58:51.841Z,49.19
2018-05-07T10:59:58.566Z,48.97
2018-05-07T11:01:05.370Z,48.87
2018-05-07T11:02:12.063Z,48.68
2018-05-07T11:03:18.884Z,48.67
2018-05-07T11:04:25.620Z,48.44
2018-05-07T11:05:32.318Z,48.42
2018-05-07T11:06:39.134Z,48.36
2018-05-07T11:07:45.911Z,48.52
2018-05-07T11:08:52.663Z,48.48
2018-05-07T11:09:59.408Z,48.05
2018-05-07T11:11:06.254Z,48.03
2018-05-07T11:12:13.011Z,47.93
2018-05-07T11:13:19.847Z,47.91
2018-05-07T11:14:26.707Z,47.95
2018-05-07T11:15:33.467Z,48.26
2018-05-07T11:16:40.258Z,48.14
2018-05-07T11:17:47.034Z,48.25
2018-05-07T11:18:53.991Z,48.31
2018-05-07T11:20:00.619Z,48.15
2018-05-07T11:21:07.467Z,47.72
2018-05-07T11:22:14.286Z,47.45
2018-05-07T11:23:21.087Z,47.38
2018-05-07T11:24:27.867Z,47.23
2018-05-07T11:25:34.736Z,47.02
2018-05-07T11:26:41.647Z,47.14
2018-05-07T11:27:48.770Z,47.05
2018-05-07T11:28:55.751Z,46.75
2018-05-07T11:30:02.547Z,46.77
2018-05-07T11:31:09.426Z,46.64
2018-05-07T11:32:16.385Z,46.55
2018-05-07T11:33:23.395Z,46.60
2018-05-07T11:34:30.342Z,46.44
2018-05-07T11:35:37.131Z,46.22
2018-05-07T11:36:43.923Z,46.21
2018-05-07T11:37:50.785Z,46.03
2018-05-07T11:38:57.578Z,45.90
2018-05-07T11:40:04.346Z,45.71
2018-05-07T11:41:11.085Z,45.81
2018-05-07T11:42:17.847Z,45.91
2018-05-07T11:43:24.710Z,45.55
2018-05-07T11:44:31.486Z,45.48
2018-05-07T11:45:38.266Z,45.72
2018-05-07T11:46:45.048Z,45.88
2018-05-07T11:47:51.910Z,45.92
2018-05-07T11:48:58.694Z,46.12
2018-05-07T11:50:05.463Z,46.12
2018-05-07T11:51:12.321Z,46.29
2018-05-07T11:52:19.071Z,46.10
2018-05-07T11:53:25.855Z,45.81
2018-05-07T11:54:32.754Z,45.91
2018-05-07T11:55:39.553Z,45.92
2018-05-07T11:56:46.320Z,46.26
2018-05-07T11:57:54.093Z,46.04
2018-05-07T11:58:59.883Z,45.95
2018-05-07T12:00:06.667Z,45.92
2018-05-07T12:01:13.495Z,45.99
2018-05-07T12:02:20.347Z,46.09
2018-05-07T12:03:27.135Z,46.02
2018-05-07T12:04:33.978Z,46.00
2018-05-07T12:05:40.770Z,45.76
2018-05-07T12:06:47.530Z,45.76
2018-05-07T12:07:54.306Z,45.92
2018-05-07T12:09:01.099Z,45.89
2018-05-07T12:10:08.055Z,45.64
2018-05-07T12:11:14.938Z,45.43
2018-05-07T12:12:21.684Z,45.32
2018-05-07T12:13:28.682Z,45.22
2018-05-07T12:14:35.495Z,44.97
2018-05-07T12:15:42.327Z,45.02
2018-05-07T12:16:49.003Z,44.90
2018-05-07T12:17:55.779Z,44.94
2018-05-07T12:19:02.571Z,44.89
2018-05-07T12:20:09.382Z,44.72
2018-05-07T12:21:16.131Z,44.86
2018-05-07T12:22:23.274Z,44.76
2018-05-07T12:23:29.996Z,44.47
2018-05-07T12:24:36.703Z,44.25
2018-05-07T12:25:43.526Z,44.20
2018-05-07T12:26:50.248Z,44.30
2018-05-07T12:27:56.982Z,44.37
2018-05-07T12:29:03.695Z,44.21
2018-05-07T12:30:10.423Z,44.64
2018-05-07T12:31:18.439Z,45.05
2018-05-07T12:32:24.150Z,44.92
2018-05-07T12:33:30.874Z,44.60
2018-05-07T12:34:37.694Z,44.50
2018-05-07T12:35:44.425Z,44.70
2018-05-07T12:36:51.194Z,44.13
2018-05-07T12:37:57.910Z,44.01
2018-05-07T12:39:04.698Z,43.97
2018-05-07T12:40:11.473Z,43.97
2018-05-07T12:41:18.203Z,43.87
2018-05-07T12:42:24.938Z,43.88
2018-05-07T12:43:31.717Z,43.58
2018-05-07T12:44:38.635Z,43.34
2018-05-07T12:45:45.415Z,43.32
2018-05-07T12:46:52.260Z,43.09
2018-05-07T12:47:58.960Z,43.07
2018-05-07T12:49:05.788Z,43.04
2018-05-07T12:50:12.507Z,42.83
2018-05-07T12:51:19.388Z,42.57
2018-05-07T12:52:26.344Z,42.60
2018-05-07T12:53:33.015Z,42.77
2018-05-07T12:54:39.934Z,42.48
2018-05-07T12:55:46.782Z,42.28
2018-05-07T12:56:53.516Z,41.83
2018-05-07T12:58:00.215Z,41.68
2018-05-07T12:59:07.092Z,41.56
2018-05-07T13:00:13.844Z,41.66
2018-05-07T13:01:20.615Z,41.83
2018-05-07T13:02:27.497Z,41.83
2018-05-07T13:03:34.406Z,41.59
2018-05-07T13:04:41.110Z,41.45
2018-05-07T13:05:47.847Z,41.15
2018-05-07T13:06:54.770Z,41.44
2018-05-07T13:08:01.486Z,41.75
2018-05-07T13:09:08.294Z,41.70
2018-05-07T13:10:15.100Z,41.65
2018-05-07T13:11:21.914Z,41.68
2018-05-07T13:12:28.723Z,41.54
2018-05-07T13:13:35.498Z,41.29
2018-05-07T13:14:42.222Z,41.14
2018-05-07T13:15:49.019Z,40.77
2018-05-07T13:16:55.943Z,40.54
2018-05-07T13:18:02.787Z,40.45
2018-05-07T13:19:09.759Z,40.17
2018-05-07T13:20:16.975Z,40.46
2018-05-07T13:21:23.937Z,40.37
2018-05-07T13:22:30.844Z,40.20
2018-05-07T13:23:37.778Z,40.08
2018-05-07T13:24:44.656Z,40.11
2018-05-07T13:25:51.540Z,40.40
2018-05-07T13:26:58.448Z,40.43
2018-05-07T13:28:05.383Z,40.08
2018-05-07T13:29:12.311Z,40.06
2018-05-07T13:30:19.259Z,40.04
2018-05-07T13:31:26.089Z,39.81
2018-05-07T13:32:33.700Z,39.84
2018-05-07T13:33:40.691Z,39.72
2018-05-07T13:34:46.757Z,39.56
2018-05-07T13:35:53.375Z,39.71
2018-05-07T13:37:01.332Z,39.54
2018-05-07T13:38:07.305Z,39.32
2018-05-07T13:39:14.266Z,39.17
2018-05-07T13:40:21.095Z,38.86
2018-05-07T13:41:27.960Z,38.52
2018-05-07T13:42:34.721Z,38.46
2018-05-07T13:43:42.416Z,38.45
2018-05-07T13:44:48.569Z,38.29
2018-05-07T13:45:55.920Z,38.13
2018-05-07T13:47:02.403Z,38.09
2018-05-07T13:48:09.222Z,38.04
2018-05-07T13:49:18.887Z,37.86
2018-05-07T13:50:23.252Z,37.75
2018-05-07T13:51:30.126Z,37.59
2018-05-07T13:52:37.321Z,37.58
2018-05-07T13:53:43.927Z,37.77
2018-05-07T13:54:50.860Z,37.79
2018-05-07T13:55:57.790Z,37.95
2018-05-07T13:57:04.947Z,38.13
2018-05-07T13:58:11.811Z,38.50
2018-05-07T13:59:18.589Z,38.88
2018-05-07T14:00:25.393Z,38.70
2018-05-07T14:01:32.167Z,38.53
2018-05-07T14:02:38.952Z,38.56
2018-05-07T14:03:45.738Z,38.52
2018-05-07T14:04:52.558Z,38.87
2018-05-07T14:05:59.482Z,38.42
2018-05-07T14:07:06.309Z,38.39
2018-05-07T14:08:12.993Z,38.35
2018-05-07T14:09:19.850Z,38.27
2018-05-07T14:10:26.624Z,38.40
2018-05-07T14:11:33.413Z,38.28
2018-05-07T14:12:40.288Z,37.87
2018-05-07T14:13:47.379Z,37.66
2018-05-07T14:14:53.922Z,37.54
2018-05-07T14:16:01.245Z,37.47
2018-05-07T14:17:07.623Z,37.46
2018-05-07T14:18:14.555Z,37.67
2018-05-07T14:19:21.350Z,37.39
2018-05-07T14:20:29.800Z,37.13
2018-05-07T14:21:35.155Z,37.37